createdAt,value
2017-12-29T00:00:45.969Z,1.20
2017-12-29T00:03:14.486Z,1.20
2017-12-29T00:05:42.137Z,1.20
2017-12-29T00:08:09.811Z,1.30
2017-12-29T00:10:37.432Z,1.30
2017-12-29T00:13:05.076Z,1.30
2017-12-29T00:15:32.693Z,1.30
2017-12-29T00:18:00.346Z,1.30
2017-12-29T00:20:27.959Z,1.30
2017-12-29T00:22:56.333Z,1.20
2017-12-29T00:25:24.977Z,1.30
2017-12-29T00:27:52.592Z,1.20
2017-12-29T00:30:20.247Z,1.30
2017-12-29T00:32:48.612Z,1.40
2017-12-29T00:35:16.232Z,1.40
2017-12-29T00:37:43.886Z,1.40
2017-12-29T00:40:11.701Z,1.40
2017-12-29T00:42:39.353Z,1.30
2017-12-29T00:45:07.742Z,1.30
2017-12-29T00:47:35.597Z,1.20
2017-12-29T00:50:03.236Z,1.20
2017-12-29T00:52:30.860Z,1.20
2017-12-29T00:54:59.261Z,1.30
2017-12-29T00:57:26.891Z,1.20
2017-12-29T00:59:54.590Z,1.30
2017-12-29T01:02:22.249Z,1.20
2017-12-29T01:04:51.518Z,1.20
2017-12-29T01:07:19.447Z,1.20
2017-12-29T01:09:47.090Z,1.20
2017-12-29T01:12:14.896Z,1.10
2017-12-29T01:14:43.297Z,1.10
2017-12-29T01:17:10.929Z,1.00
2017-12-29T01:19:38.593Z,1.00
2017-12-29T01:22:06.213Z,1.00
2017-12-29T01:24:33.829Z,1.00
2017-12-29T01:27:02.341Z,1.00
2017-12-29T01:29:29.949Z,0.90
2017-12-29T01:31:58.364Z,1.00
2017-12-29T01:34:26.004Z,0.90
2017-12-29T01:36:53.618Z,1.00
2017-12-29T01:39:22.034Z,1.00
2017-12-29T01:41:49.658Z,0.90
2017-12-29T01:44:17.299Z,1.00
2017-12-29T01:46:44.981Z,1.00
2017-12-29T01:49:12.601Z,1.00
2017-12-29T01:51:47.962Z,1.10
2017-12-29T01:54:15.612Z,1.10
2017-12-29T01:56:43.261Z,1.20
2017-12-29T01:59:10.901Z,1.20
2017-12-29T02:01:38.528Z,1.20
2017-12-29T02:04:06.171Z,1.30
2017-12-29T02:06:33.783Z,1.20
2017-12-29T02:09:01.461Z,1.20
2017-12-29T02:11:29.074Z,1.20
2017-12-29T02:13:56.685Z,1.30
2017-12-29T02:16:24.329Z,1.20
2017-12-29T02:18:51.945Z,1.30
2017-12-29T02:21:19.594Z,1.30
2017-12-29T02:23:47.197Z,1.30
2017-12-29T02:26:15.613Z,1.30
2017-12-29T02:28:43.258Z,1.30
2017-12-29T02:31:10.868Z,1.30
2017-12-29T02:33:38.515Z,1.30
2017-12-29T02:36:06.157Z,1.30
2017-12-29T02:38:33.770Z,1.30
2017-12-29T02:41:01.421Z,1.30
2017-12-29T02:43:29.052Z,1.30
2017-12-29T02:45:56.727Z,1.20
2017-12-29T02:48:25.105Z,1.30
2017-12-29T02:50:52.715Z,1.20
2017-12-29T02:53:21.149Z,1.30
2017-12-29T02:55:48.773Z,1.20
2017-12-29T02:58:16.423Z,1.30
2017-12-29T03:00:44.077Z,1.20
2017-12-29T03:03:11.768Z,1.30
2017-12-29T03:05:39.425Z,1.30
2017-12-29T03:08:07.827Z,1.30
2017-12-29T03:10:35.673Z,1.20
2017-12-29T03:13:03.321Z,1.30
2017-12-29T03:15:30.924Z,1.40
2017-12-29T03:17:58.581Z,1.40
2017-12-29T03:20:26.192Z,1.40
2017-12-29T03:22:53.844Z,1.40
2017-12-29T03:25:21.737Z,1.40
2017-12-29T03:27:51.293Z,1.40
2017-12-29T03:30:18.937Z,1.30
2017-12-29T03:32:46.837Z,1.40
2017-12-29T03:35:14.592Z,1.40
2017-12-29T03:37:42.227Z,1.40
2017-12-29T03:40:10.609Z,1.40
2017-12-29T03:42:38.268Z,1.30
2017-12-29T03:45:05.942Z,1.30
2017-12-29T03:47:33.590Z,1.40
2017-12-29T03:50:01.197Z,1.40
2017-12-29T03:52:30.224Z,1.40
2017-12-29T03:54:57.878Z,1.30
2017-12-29T03:57:25.643Z,1.30
2017-12-29T03:59:53.277Z,1.40
2017-12-29T04:02:21.685Z,1.40
2017-12-29T04:04:49.289Z,1.30
2017-12-29T04:07:16.936Z,1.40
2017-12-29T04:09:44.630Z,1.40
2017-12-29T04:12:12.272Z,1.40
2017-12-29T04:14:39.973Z,1.40
2017-12-29T04:17:07.653Z,1.40
2017-12-29T04:19:35.322Z,1.40
2017-12-29T04:22:02.925Z,1.50
2017-12-29T04:24:31.329Z,1.50
2017-12-29T04:26:58.959Z,1.40
2017-12-29T04:29:26.604Z,1.50
2017-12-29T04:31:54.236Z,1.50
2017-12-29T04:34:22.642Z,1.50
2017-12-29T04:36:50.279Z,1.40
2017-12-29T04:39:17.885Z,1.50
2017-12-29T04:41:45.573Z,1.50
2017-12-29T04:44:13.229Z,1.50
2017-12-29T04:46:40.869Z,1.50
2017-12-29T04:49:08.508Z,1.60
2017-12-29T04:51:36.140Z,1.50
2017-12-29T04:54:03.808Z,1.50
2017-12-29T04:56:31.456Z,1.50
2017-12-29T04:58:59.061Z,1.60
2017-12-29T05:01:27.481Z,1.60
2017-12-29T05:03:55.093Z,1.50
2017-12-29T05:06:22.709Z,1.60
2017-12-29T05:08:51.125Z,1.50
2017-12-29T05:11:18.731Z,1.50
2017-12-29T05:13:47.145Z,1.60
2017-12-29T05:16:14.868Z,1.50
2017-12-29T05:18:42.493Z,1.60
2017-12-29T05:21:10.897Z,1.50
2017-12-29T05:23:38.509Z,1.50
2017-12-29T05:26:06.171Z,1.60
2017-12-29T05:28:33.785Z,1.60
2017-12-29T05:31:02.269Z,1.70
2017-12-29T05:33:29.915Z,1.60
2017-12-29T05:35:57.537Z,1.70
2017-12-29T05:38:25.189Z,1.60
2017-12-29T05:40:52.800Z,1.70
2017-12-29T05:43:20.426Z,1.70
2017-12-29T05:45:48.199Z,1.60
2017-12-29T05:48:16.051Z,1.60
2017-12-29T05:50:43.778Z,1.60
2017-12-29T05:53:11.436Z,1.60
2017-12-29T05:55:39.073Z,1.60
2017-12-29T05:58:06.734Z,1.70
2017-12-29T06:00:34.557Z,1.70
2017-12-29T06:03:02.217Z,1.70
2017-12-29T06:05:29.837Z,1.70
2017-12-29T06:08:04.174Z,1.70
2017-12-29T06:10:31.905Z,1.70
2017-12-29T06:12:59.525Z,1.70
2017-12-29T06:15:27.940Z,1.70
2017-12-29T06:17:55.969Z,1.70
2017-12-29T06:20:23.620Z,1.70
2017-12-29T06:22:52.864Z,1.80
2017-12-29T06:25:21.442Z,1.70
2017-12-29T06:27:49.107Z,1.70
2017-12-29T06:30:16.717Z,1.70
2017-12-29T06:32:44.496Z,1.70
2017-12-29T06:35:12.145Z,1.70
2017-12-29T06:37:39.750Z,1.80
2017-12-29T06:40:07.384Z,1.80
2017-12-29T06:42:35.017Z,1.80
2017-12-29T06:45:02.672Z,1.80
2017-12-29T06:47:30.301Z,1.80
2017-12-29T06:49:57.916Z,1.70
2017-12-29T06:52:25.714Z,1.70
2017-12-29T06:54:53.328Z,1.80
2017-12-29T06:57:20.969Z,1.70
2017-12-29T06:59:48.573Z,1.70
2017-12-29T07:02:16.179Z,1.70
2017-12-29T07:04:43.822Z,1.70
2017-12-29T07:07:11.427Z,1.80
2017-12-29T07:09:39.860Z,1.80
2017-12-29T07:12:07.465Z,1.70
2017-12-29T07:14:35.113Z,1.80
2017-12-29T07:17:02.769Z,1.80
2017-12-29T07:19:30.425Z,1.80
2017-12-29T07:21:58.125Z,1.80
2017-12-29T07:24:26.513Z,1.90
2017-12-29T07:26:54.150Z,1.80
2017-12-29T07:29:21.817Z,1.80
2017-12-29T07:31:49.449Z,1.90
2017-12-29T07:34:17.105Z,1.80
2017-12-29T07:36:45.290Z,1.90
2017-12-29T07:39:12.898Z,1.90
2017-12-29T07:41:40.553Z,1.90
2017-12-29T07:44:08.165Z,1.90
2017-12-29T07:46:35.857Z,1.90
2017-12-29T07:49:03.484Z,1.90
2017-12-29T07:51:31.109Z,1.90
2017-12-29T07:53:58.756Z,1.90
2017-12-29T07:56:26.365Z,1.90
2017-12-29T07:58:54.032Z,1.90
2017-12-29T08:01:21.741Z,2.00
2017-12-29T08:03:49.352Z,2.00
2017-12-29T08:06:17.768Z,2.00
2017-12-29T08:08:45.425Z,2.00
2017-12-29T08:11:13.075Z,2.00
2017-12-29T08:13:40.689Z,2.00
2017-12-29T08:16:08.418Z,2.00
2017-12-29T08:18:36.080Z,2.10
2017-12-29T08:21:03.691Z,2.10
2017-12-29T08:23:32.098Z,2.20
2017-12-29T08:25:59.715Z,2.20
2017-12-29T08:28:27.354Z,2.20
2017-12-29T08:30:55.777Z,2.20
2017-12-29T08:33:23.394Z,2.20
2017-12-29T08:35:58.521Z,2.20
2017-12-29T08:38:26.453Z,2.30
2017-12-29T08:40:54.111Z,2.30
2017-12-29T08:43:21.721Z,2.30
2017-12-29T08:45:50.102Z,2.50
2017-12-29T08:48:17.744Z,2.40
2017-12-29T08:50:46.185Z,2.40
2017-12-29T08:53:13.861Z,2.40
2017-12-29T08:55:42.337Z,2.50
2017-12-29T08:58:09.971Z,2.50
2017-12-29T09:00:38.444Z,2.60
2017-12-29T09:03:06.186Z,2.60
2017-12-29T09:05:33.902Z,2.60
2017-12-29T09:08:01.721Z,2.50
2017-12-29T09:10:29.361Z,2.50
2017-12-29T09:12:57.009Z,2.50
2017-12-29T09:15:24.649Z,2.60
2017-12-29T09:17:52.293Z,2.60
2017-12-29T09:20:19.925Z,2.70
2017-12-29T09:22:48.125Z,2.70
2017-12-29T09:25:15.883Z,2.70
2017-12-29T09:27:43.523Z,2.70
2017-12-29T09:30:11.205Z,2.70
2017-12-29T09:32:38.816Z,2.80
2017-12-29T09:35:06.429Z,2.80
2017-12-29T09:37:34.120Z,2.80
2017-12-29T09:40:01.749Z,2.90
2017-12-29T09:42:29.357Z,2.90
2017-12-29T09:44:56.994Z,2.80
2017-12-29T09:47:24.617Z,2.90
2017-12-29T09:49:52.226Z,2.90
2017-12-29T09:52:19.875Z,2.90
2017-12-29T09:54:47.507Z,2.80
2017-12-29T09:57:15.125Z,2.70
2017-12-29T09:59:43.151Z,2.70
2017-12-29T10:02:10.756Z,2.70
2017-12-29T10:04:38.417Z,2.80
2017-12-29T10:07:06.033Z,2.80
2017-12-29T10:09:33.645Z,2.80
2017-12-29T10:12:01.300Z,2.70
2017-12-29T10:14:29.678Z,2.70
2017-12-29T10:16:57.357Z,2.60
2017-12-29T10:19:25.069Z,2.70
2017-12-29T10:21:52.918Z,2.80
2017-12-29T10:24:21.321Z,2.80
2017-12-29T10:26:48.982Z,2.70
2017-12-29T10:29:17.048Z,2.80
2017-12-29T10:31:44.697Z,2.90
2017-12-29T10:34:12.317Z,2.90
2017-12-29T10:36:39.971Z,2.90
2017-12-29T10:39:07.580Z,2.90
2017-12-29T10:41:35.238Z,2.90
2017-12-29T10:44:02.865Z,2.90
2017-12-29T10:46:31.297Z,2.90
2017-12-29T10:48:58.953Z,2.80
2017-12-29T10:51:26.599Z,2.90
2017-12-29T10:53:54.253Z,2.90
2017-12-29T10:56:21.869Z,3.00
2017-12-29T10:58:49.489Z,3.00
2017-12-29T11:01:17.206Z,3.10
2017-12-29T11:03:45.641Z,3.10
2017-12-29T11:06:13.286Z,3.00
2017-12-29T11:08:40.897Z,3.10
2017-12-29T11:11:08.520Z,3.20
2017-12-29T11:13:36.160Z,3.20
2017-12-29T11:16:04.601Z,3.30
2017-12-29T11:18:32.236Z,3.20
2017-12-29T11:20:59.844Z,3.30
2017-12-29T11:23:27.457Z,3.30
2017-12-29T11:25:56.033Z,3.30
2017-12-29T11:28:24.700Z,3.40
2017-12-29T11:30:53.109Z,3.50
2017-12-29T11:33:20.712Z,3.50
2017-12-29T11:35:49.088Z,3.60
2017-12-29T11:38:16.745Z,3.50
2017-12-29T11:40:44.397Z,3.50
2017-12-29T11:43:12.051Z,3.50
2017-12-29T11:45:39.707Z,3.40
2017-12-29T11:48:07.330Z,3.40
2017-12-29T11:50:35.261Z,3.40
2017-12-29T11:53:03.646Z,3.50
2017-12-29T11:55:31.305Z,3.50
2017-12-29T11:57:58.909Z,3.50
2017-12-29T12:00:27.289Z,3.50
2017-12-29T12:02:55.054Z,3.40
2017-12-29T12:05:22.666Z,3.40
2017-12-29T12:07:51.883Z,3.50
2017-12-29T12:10:19.500Z,3.50
2017-12-29T12:12:48.465Z,3.70
2017-12-29T12:15:16.203Z,3.60
2017-12-29T12:17:43.835Z,3.70
2017-12-29T12:20:11.527Z,3.90
2017-12-29T12:22:39.175Z,3.90
2017-12-29T12:25:07.561Z,3.90
2017-12-29T12:27:35.204Z,3.90
2017-12-29T12:30:02.850Z,3.90
2017-12-29T12:32:30.629Z,3.90
2017-12-29T12:34:58.236Z,3.60
2017-12-29T12:37:25.983Z,3.60
2017-12-29T12:39:53.639Z,3.60
2017-12-29T12:42:21.246Z,3.50
2017-12-29T12:44:48.891Z,3.60
2017-12-29T12:47:16.516Z,3.50
2017-12-29T12:49:44.164Z,3.40
2017-12-29T12:52:11.814Z,3.40
2017-12-29T12:54:39.424Z,3.40
2017-12-29T12:57:07.069Z,3.50
2017-12-29T12:59:34.724Z,3.50
2017-12-29T13:02:03.173Z,3.60
2017-12-29T13:04:30.817Z,3.80
2017-12-29T13:06:58.434Z,4.10
2017-12-29T13:09:26.109Z,4.40
2017-12-29T13:11:53.731Z,4.30
2017-12-29T13:14:21.337Z,4.20
2017-12-29T13:16:49.000Z,4.10
2017-12-29T13:19:16.610Z,4.30
2017-12-29T13:21:44.301Z,4.10
2017-12-29T13:24:11.907Z,3.90
2017-12-29T13:26:39.513Z,4.00
2017-12-29T13:29:07.913Z,4.60
2017-12-29T13:31:35.604Z,4.50
2017-12-29T13:34:03.252Z,4.60
2017-12-29T13:36:30.863Z,4.60
2017-12-29T13:38:58.481Z,4.40
2017-12-29T13:41:26.888Z,4.50
2017-12-29T13:43:54.577Z,4.40
2017-12-29T13:46:22.992Z,4.40
2017-12-29T13:48:50.605Z,4.40
2017-12-29T13:51:18.220Z,4.20
2017-12-29T13:53:45.990Z,3.90
2017-12-29T13:56:13.613Z,3.70
2017-12-29T13:58:41.263Z,3.90
2017-12-29T14:01:08.873Z,3.90
2017-12-29T14:03:36.649Z,3.70
2017-12-29T14:06:04.557Z,3.50
2017-12-29T14:08:32.216Z,3.30
2017-12-29T14:11:02.258Z,3.20
2017-12-29T14:13:29.869Z,3.10
2017-12-29T14:15:57.477Z,3.00
2017-12-29T14:18:25.161Z,3.00
2017-12-29T14:20:52.776Z,2.90
2017-12-29T14:23:20.413Z,2.70
2017-12-29T14:25:48.789Z,2.60
2017-12-29T14:28:16.404Z,2.50
2017-12-29T14:30:44.134Z,2.50
2017-12-29T14:33:11.750Z,2.40
2017-12-29T14:35:39.405Z,2.30
2017-12-29T14:38:07.021Z,2.30
2017-12-29T14:40:34.653Z,2.30
2017-12-29T14:43:02.294Z,2.20
2017-12-29T14:45:30.802Z,2.20
2017-12-29T14:47:58.456Z,2.20
2017-12-29T14:50:26.202Z,2.10
2017-12-29T14:52:53.923Z,2.10
2017-12-29T14:55:21.682Z,2.00
2017-12-29T14:57:49.300Z,2.10
2017-12-29T15:00:17.720Z,2.00
2017-12-29T15:02:45.501Z,2.00
2017-12-29T15:05:13.194Z,2.00
2017-12-29T15:07:40.864Z,1.90
2017-12-29T15:10:08.544Z,1.90
2017-12-29T15:12:36.248Z,1.90
2017-12-29T15:15:03.865Z,1.80
2017-12-29T15:17:32.600Z,1.70
2017-12-29T15:20:00.258Z,1.70
2017-12-29T15:22:27.877Z,1.70
2017-12-29T15:24:55.620Z,1.60
2017-12-29T15:27:23.241Z,1.60
2017-12-29T15:29:50.864Z,1.60
2017-12-29T15:32:18.769Z,1.60
2017-12-29T15:34:46.390Z,1.60
2017-12-29T15:37:14.147Z,1.50
2017-12-29T15:39:41.765Z,1.50
2017-12-29T15:42:09.397Z,1.40
2017-12-29T15:44:37.813Z,1.40
2017-12-29T15:47:05.565Z,1.40
2017-12-29T15:49:33.220Z,1.40
2017-12-29T15:52:00.838Z,1.30
2017-12-29T15:54:28.493Z,1.20
2017-12-29T15:56:56.225Z,1.30
2017-12-29T15:59:24.127Z,1.20
2017-12-29T16:01:52.557Z,1.10
2017-12-29T16:04:20.201Z,1.00
2017-12-29T16:06:47.882Z,1.00
2017-12-29T16:09:15.643Z,1.00
2017-12-29T16:11:43.363Z,1.00
2017-12-29T16:14:19.529Z,0.90
2017-12-29T16:16:57.327Z,0.80
2017-12-29T16:19:31.181Z,0.80
2017-12-29T16:22:04.113Z,0.80
2017-12-29T16:24:32.082Z,0.80
2017-12-29T16:26:59.722Z,0.70
2017-12-29T16:29:29.808Z,0.70
2017-12-29T16:32:01.291Z,0.70
2017-12-29T16:34:34.123Z,0.60
2017-12-29T16:37:02.107Z,0.70
2017-12-29T16:39:32.544Z,0.60
2017-12-29T16:42:05.426Z,0.70
2017-12-29T16:44:40.000Z,0.50
2017-12-29T16:47:08.041Z,0.40
2017-12-29T16:49:35.772Z,0.50
2017-12-29T16:52:03.393Z,0.50
2017-12-29T16:54:31.814Z,0.40
2017-12-29T16:56:59.659Z,0.40
2017-12-29T16:59:27.322Z,0.50
2017-12-29T17:01:55.066Z,0.50
2017-12-29T17:04:22.682Z,0.50
2017-12-29T17:06:50.332Z,0.60
2017-12-29T17:09:17.947Z,0.60
2017-12-29T17:11:46.373Z,0.60
2017-12-29T17:14:14.052Z,0.60
2017-12-29T17:16:41.706Z,0.70
2017-12-29T17:19:10.118Z,0.60
2017-12-29T17:21:37.737Z,0.60
2017-12-29T17:24:05.646Z,0.60
2017-12-29T17:26:33.258Z,0.50
2017-12-29T17:29:00.898Z,0.50
2017-12-29T17:31:28.540Z,0.50
2017-12-29T17:33:56.146Z,0.50
2017-12-29T17:36:23.806Z,0.50
2017-12-29T17:38:52.184Z,0.50
2017-12-29T17:41:19.807Z,0.50
2017-12-29T17:43:47.455Z,0.50
2017-12-29T17:46:15.083Z,0.50
2017-12-29T17:48:42.755Z,0.50
2017-12-29T17:51:10.384Z,0.50
2017-12-29T17:53:38.009Z,0.50
2017-12-29T17:56:05.646Z,0.50
2017-12-29T17:58:33.268Z,0.60
2017-12-29T18:01:00.917Z,0.50
2017-12-29T18:03:28.535Z,0.60
2017-12-29T18:05:56.920Z,0.50
2017-12-29T18:08:24.661Z,0.40
2017-12-29T18:11:16.047Z,0.40
2017-12-29T18:13:44.606Z,0.30
2017-12-29T18:16:12.990Z,0.20
2017-12-29T18:18:40.605Z,0.20
2017-12-29T18:21:09.033Z,0.20
2017-12-29T18:23:36.657Z,0.20
2017-12-29T18:26:04.560Z,0.20
2017-12-29T18:28:32.165Z,0.20
2017-12-29T18:30:59.852Z,0.20
2017-12-29T18:33:27.506Z,0.20
2017-12-29T18:35:55.122Z,0.20
2017-12-29T18:38:22.769Z,0.20
2017-12-29T18:40:50.394Z,0.20
2017-12-29T18:43:18.021Z,0.20
2017-12-29T18:45:45.714Z,0.10
2017-12-29T18:48:14.047Z,0.20
2017-12-29T18:50:41.737Z,0.10
2017-12-29T18:53:09.365Z,0.20
2017-12-29T18:55:36.992Z,0.20
2017-12-29T18:58:04.741Z,0.20
2017-12-29T19:00:32.349Z,0.10
2017-12-29T19:03:00.761Z,0.00
2017-12-29T19:05:28.383Z,0.00
2017-12-29T19:07:56.035Z,0.00
2017-12-29T19:10:23.694Z,0.00
2017-12-29T19:12:51.312Z,0.00
2017-12-29T19:15:19.000Z,0.00
2017-12-29T19:17:46.604Z,0.10
2017-12-29T19:20:14.210Z,0.00
2017-12-29T19:22:41.915Z,0.00
2017-12-29T19:25:10.277Z,0.10
2017-12-29T19:27:37.909Z,0.00
2017-12-29T19:30:05.637Z,0.10
2017-12-29T19:32:34.044Z,0.20
2017-12-29T19:35:01.746Z,0.20
2017-12-29T19:37:29.442Z,0.30
2017-12-29T19:39:57.088Z,0.30
2017-12-29T19:42:24.935Z,0.40
2017-12-29T19:44:52.545Z,0.40
2017-12-29T19:47:20.978Z,0.40
2017-12-29T19:49:48.616Z,0.40
2017-12-29T19:52:16.270Z,0.40
2017-12-29T19:54:43.896Z,0.40
2017-12-29T19:57:11.678Z,0.40
2017-12-29T19:59:39.322Z,0.40
2017-12-29T20:02:06.933Z,0.40
2017-12-29T20:04:34.659Z,0.20
2017-12-29T20:07:02.289Z,0.30
2017-12-29T20:09:30.674Z,0.30
2017-12-29T20:11:58.330Z,0.30
2017-12-29T20:14:25.998Z,0.30
2017-12-29T20:16:53.655Z,0.20
2017-12-29T20:19:21.289Z,0.10
2017-12-29T20:21:48.902Z,0.00
2017-12-29T20:24:16.553Z,0.00
2017-12-29T20:26:44.196Z,-0.10
2017-12-29T20:29:11.863Z,-0.10
2017-12-29T20:31:39.497Z,-0.10
2017-12-29T20:34:07.160Z,-0.10
2017-12-29T20:36:34.999Z,-0.10
2017-12-29T20:39:02.613Z,-0.20
2017-12-29T20:41:30.253Z,-0.20
2017-12-29T20:43:57.882Z,-0.20
2017-12-29T20:46:25.668Z,-0.20
2017-12-29T20:48:54.124Z,-0.30
2017-12-29T20:51:21.737Z,-0.40
2017-12-29T20:53:49.396Z,-0.30
2017-12-29T20:56:17.105Z,-0.30
2017-12-29T20:58:44.926Z,-0.30
2017-12-29T21:01:13.349Z,-0.30
2017-12-29T21:03:40.993Z,-0.30
2017-12-29T21:06:08.656Z,-0.40
2017-12-29T21:08:36.281Z,-0.40
2017-12-29T21:11:03.956Z,-0.40
2017-12-29T21:13:31.765Z,-0.30
2017-12-29T21:15:59.396Z,-0.30
2017-12-29T21:18:27.075Z,-0.30
2017-12-29T21:20:54.906Z,-0.20
2017-12-29T21:23:22.534Z,-0.20
2017-12-29T21:25:50.200Z,-0.20
2017-12-29T21:28:17.833Z,-0.10
2017-12-29T21:30:45.665Z,-0.10
2017-12-29T21:33:13.282Z,-0.10
2017-12-29T21:35:40.897Z,0.00
2017-12-29T21:38:08.565Z,0.00
2017-12-29T21:40:36.189Z,0.00
2017-12-29T21:43:03.850Z,0.00
2017-12-29T21:45:32.365Z,-0.10
2017-12-29T21:47:59.981Z,-0.10
2017-12-29T21:50:27.637Z,-0.10
2017-12-29T21:52:56.046Z,-0.10
2017-12-29T21:55:23.700Z,-0.10
2017-12-29T21:57:51.305Z,-0.10
2017-12-29T22:00:19.714Z,-0.10
2017-12-29T22:02:47.359Z,-0.10
2017-12-29T22:05:15.070Z,-0.10
2017-12-29T22:07:42.725Z,-0.10
2017-12-29T22:10:10.385Z,-0.10
2017-12-29T22:12:37.999Z,-0.10
2017-12-29T22:15:06.417Z,-0.20
2017-12-29T22:17:34.124Z,-0.30
2017-12-29T22:20:01.776Z,-0.30
2017-12-29T22:22:29.405Z,-0.20
2017-12-29T22:24:57.794Z,-0.20
2017-12-29T22:27:26.278Z,-0.30
2017-12-29T22:29:54.165Z,-0.20
2017-12-29T22:32:21.828Z,-0.30
2017-12-29T22:34:50.227Z,-0.30
2017-12-29T22:37:17.848Z,-0.30
2017-12-29T22:39:46.265Z,-0.30
2017-12-29T22:42:13.885Z,-0.30
2017-12-29T22:44:41.741Z,-0.30
2017-12-29T22:47:09.356Z,-0.30
2017-12-29T22:49:37.735Z,-0.20
2017-12-29T22:52:05.648Z,-0.30
2017-12-29T22:54:33.283Z,-0.20
2017-12-29T22:57:00.947Z,-0.20
2017-12-29T22:59:28.584Z,-0.10
2017-12-29T23:01:57.004Z,-0.30
2017-12-29T23:04:24.673Z,-0.40
2017-12-29T23:06:52.286Z,-0.30
2017-12-29T23:09:19.959Z,-0.30
2017-12-29T23:11:47.586Z,-0.30
2017-12-29T23:14:15.214Z,-0.30
2017-12-29T23:16:43.646Z,-0.40
2017-12-29T23:19:11.262Z,-0.40
2017-12-29T23:21:38.916Z,-0.30
2017-12-29T23:24:06.566Z,-0.30
2017-12-29T23:26:34.221Z,-0.30
2017-12-29T23:29:01.882Z,-0.30
2017-12-29T23:31:29.521Z,-0.30
2017-12-29T23:33:57.182Z,-0.30
2017-12-29T23:36:24.946Z,-0.30
2017-12-29T23:38:53.338Z,-0.20
2017-12-29T23:41:21.002Z,-0.30
2017-12-29T23:43:48.620Z,-0.20
2017-12-29T23:46:16.276Z,-0.10
2017-12-29T23:48:43.934Z,-0.10
2017-12-29T23:51:11.783Z,-0.10
2017-12-29T23:53:39.441Z,-0.10
2017-12-29T23:56:07.076Z,-0.10
2017-12-29T23:58:34.944Z,-0.10
